createdAt,value
2022-10-06T00:00:13.755Z,11.80
2022-10-06T00:03:06.264Z,11.80
2022-10-06T00:05:38.430Z,11.90
2022-10-06T00:08:11.456Z,12.06
2022-10-06T00:10:43.373Z,12.30
2022-10-06T00:13:15.536Z,12.50
2022-10-06T00:15:47.438Z,12.60
2022-10-06T00:18:19.441Z,12.80
2022-10-06T00:20:58.449Z,12.82
2022-10-06T00:23:30.912Z,12.90
2022-10-06T00:26:02.750Z,12.90
2022-10-06T00:28:35.031Z,12.80
2022-10-06T00:31:07.044Z,12.70
2022-10-06T00:33:39.035Z,12.60
2022-10-06T00:36:11.359Z,12.60
2022-10-06T00:38:43.166Z,12.60
2022-10-06T00:41:19.231Z,12.60
2022-10-06T00:43:53.651Z,12.58
2022-10-06T00:46:30.983Z,12.50
2022-10-06T00:49:07.383Z,12.50
2022-10-06T00:51:43.934Z,12.58
2022-10-06T00:54:17.834Z,12.60
2022-10-06T00:56:49.968Z,12.60
2022-10-06T00:59:22.124Z,12.60
2022-10-06T01:01:58.287Z,12.60
2022-10-06T01:04:34.006Z,12.60
2022-10-06T01:07:08.211Z,12.60
2022-10-06T01:09:41.792Z,12.60
2022-10-06T01:12:14.326Z,12.66
2022-10-06T01:14:46.468Z,12.62
2022-10-06T01:17:23.270Z,12.64
2022-10-06T01:20:14.097Z,12.66
2022-10-06T01:22:52.496Z,12.60
2022-10-06T01:25:25.182Z,12.60
2022-10-06T01:27:58.391Z,12.60
2022-10-06T01:30:38.800Z,12.50
2022-10-06T01:33:12.948Z,12.50
2022-10-06T01:35:49.474Z,12.50
2022-10-06T01:38:22.668Z,12.46
2022-10-06T01:40:59.945Z,12.50
2022-10-06T01:43:32.053Z,12.50
2022-10-06T01:46:04.398Z,12.50
2022-10-06T01:48:37.838Z,12.44
2022-10-06T01:51:30.521Z,12.40
2022-10-06T01:54:23.828Z,12.50
2022-10-06T01:56:56.777Z,12.70
2022-10-06T01:59:32.777Z,12.80
2022-10-06T02:02:06.246Z,12.96
2022-10-06T02:04:43.359Z,13.10
2022-10-06T02:10:37.881Z,13.44
2022-10-06T02:13:11.714Z,13.50
2022-10-06T02:15:40.338Z,13.50
2022-10-06T02:18:08.722Z,13.58
2022-10-06T02:20:37.839Z,13.50
2022-10-06T02:23:06.639Z,13.48
2022-10-06T02:25:35.043Z,13.30
2022-10-06T02:28:04.117Z,13.20
2022-10-06T02:30:33.687Z,13.10
2022-10-06T02:33:02.264Z,13.00
2022-10-06T02:35:30.827Z,13.00
2022-10-06T02:37:59.458Z,12.90
2022-10-06T02:40:28.867Z,12.90
2022-10-06T02:42:57.937Z,12.90
2022-10-06T02:45:27.341Z,12.80
2022-10-06T02:47:56.532Z,12.90
2022-10-06T02:50:25.048Z,13.00
2022-10-06T02:52:54.785Z,13.10
2022-10-06T02:55:23.612Z,13.20
2022-10-06T02:57:53.540Z,13.30
2022-10-06T03:00:22.155Z,13.38
2022-10-06T03:02:51.126Z,13.40
2022-10-06T03:05:20.794Z,13.40
2022-10-06T03:07:52.633Z,13.34
2022-10-06T03:10:21.923Z,13.32
2022-10-06T03:12:51.450Z,13.38
2022-10-06T03:15:20.928Z,13.40
2022-10-06T03:17:50.231Z,13.50
2022-10-06T03:20:18.911Z,13.50
2022-10-06T03:22:48.143Z,13.60
2022-10-06T03:25:17.862Z,13.60
2022-10-06T03:27:46.585Z,13.60
2022-10-06T03:30:15.471Z,13.70
2022-10-06T03:32:44.560Z,13.70
2022-10-06T03:35:13.685Z,13.70
2022-10-06T03:37:42.861Z,13.70
2022-10-06T03:40:17.919Z,13.70
2022-10-06T03:42:48.068Z,13.70
2022-10-06T03:45:19.983Z,13.70
2022-10-06T03:47:48.893Z,13.74
2022-10-06T03:50:18.005Z,13.80
2022-10-06T03:52:50.748Z,13.80
2022-10-06T03:55:19.456Z,13.80
2022-10-06T03:57:48.255Z,13.80
2022-10-06T04:00:17.103Z,13.80
2022-10-06T04:02:49.477Z,13.70
2022-10-06T04:05:17.970Z,13.50
2022-10-06T04:07:46.635Z,13.50
2022-10-06T04:10:15.978Z,13.50
2022-10-06T04:12:45.770Z,13.60
2022-10-06T04:15:14.816Z,13.60
2022-10-06T04:17:43.436Z,13.70
2022-10-06T04:20:12.611Z,13.70
2022-10-06T04:22:41.139Z,13.80
2022-10-06T04:25:10.228Z,13.80
2022-10-06T04:27:39.211Z,13.80
2022-10-06T04:30:12.925Z,13.80
2022-10-06T04:32:41.857Z,13.70
2022-10-06T04:35:10.459Z,13.70
2022-10-06T04:37:39.984Z,13.60
2022-10-06T04:40:10.132Z,13.44
2022-10-06T04:42:39.553Z,13.28
2022-10-06T04:45:12.374Z,13.10
2022-10-06T04:47:42.367Z,12.92
2022-10-06T04:50:11.616Z,12.80
2022-10-06T04:52:48.736Z,12.70
2022-10-06T04:55:19.963Z,12.60
2022-10-06T04:57:48.680Z,12.60
2022-10-06T05:00:24.621Z,12.50
2022-10-06T05:02:55.301Z,12.50
2022-10-06T05:05:27.418Z,12.50
2022-10-06T05:07:58.642Z,12.48
2022-10-06T05:10:27.894Z,12.50
2022-10-06T05:13:12.952Z,12.60
2022-10-06T05:15:42.014Z,12.68
2022-10-06T05:21:19.471Z,12.90
2022-10-06T05:23:52.548Z,12.90
2022-10-06T05:26:24.384Z,12.98
2022-10-06T05:28:53.609Z,12.98
2022-10-06T05:31:24.173Z,12.90
2022-10-06T05:33:53.533Z,12.90
2022-10-06T05:36:37.807Z,12.82
2022-10-06T05:39:10.812Z,12.80
2022-10-06T05:41:46.025Z,12.90
2022-10-06T05:44:15.901Z,12.90
2022-10-06T05:46:47.280Z,13.00
2022-10-06T05:49:18.619Z,13.00
2022-10-06T05:51:52.736Z,13.00
2022-10-06T05:54:25.720Z,13.10
2022-10-06T05:56:54.785Z,13.14
2022-10-06T05:59:24.817Z,13.20
2022-10-06T06:01:55.677Z,13.20
2022-10-06T06:04:32.622Z,13.30
2022-10-06T06:07:02.070Z,13.40
2022-10-06T06:09:31.319Z,13.50
2022-10-06T06:12:01.844Z,13.60
2022-10-06T06:15:07.553Z,13.80
2022-10-06T06:18:00.788Z,14.00
2022-10-06T06:20:29.155Z,14.06
2022-10-06T06:22:57.604Z,14.10
2022-10-06T06:25:29.416Z,14.18
2022-10-06T06:27:58.823Z,14.28
2022-10-06T06:30:27.449Z,14.40
2022-10-06T06:32:59.658Z,14.40
2022-10-06T06:35:29.588Z,14.50
2022-10-06T06:37:58.885Z,14.70
2022-10-06T06:40:27.592Z,14.80
2022-10-06T06:42:56.438Z,14.96
2022-10-06T06:46:02.042Z,15.10
2022-10-06T06:49:04.157Z,15.40
2022-10-06T06:51:39.736Z,15.60
2022-10-06T06:54:09.326Z,15.70
2022-10-06T06:56:40.831Z,15.80
2022-10-06T06:59:11.492Z,15.90
2022-10-06T07:01:45.012Z,16.00
2022-10-06T07:04:16.542Z,16.10
2022-10-06T07:06:56.403Z,16.22
2022-10-06T07:09:25.995Z,16.40
2022-10-06T07:11:59.579Z,16.58
2022-10-06T07:14:27.900Z,16.80
2022-10-06T07:17:15.137Z,17.04
2022-10-06T07:20:06.590Z,17.40
2022-10-06T07:22:54.359Z,17.72
2022-10-06T07:25:26.489Z,18.02
2022-10-06T07:28:02.696Z,18.30
2022-10-06T07:30:40.541Z,18.50
2022-10-06T07:33:15.259Z,18.76
2022-10-06T07:35:47.430Z,18.96
2022-10-06T07:38:29.416Z,19.12
2022-10-06T07:43:53.196Z,19.50
2022-10-06T07:46:21.874Z,19.70
2022-10-06T07:49:21.959Z,19.80
2022-10-06T07:51:52.189Z,19.96
2022-10-06T07:54:37.056Z,20.10
2022-10-06T07:57:15.996Z,20.20
2022-10-06T07:59:44.410Z,20.30
2022-10-06T08:02:14.081Z,20.40
2022-10-06T08:04:42.549Z,20.50
2022-10-06T08:07:12.080Z,20.60
2022-10-06T08:09:40.348Z,20.70
2022-10-06T08:12:23.440Z,20.80
2022-10-06T08:14:54.821Z,20.90
2022-10-06T08:17:25.539Z,20.90
2022-10-06T08:19:54.338Z,21.00
2022-10-06T08:22:26.722Z,21.00
2022-10-06T08:25:05.762Z,21.02
2022-10-06T08:27:37.591Z,21.10
2022-10-06T08:30:08.666Z,21.10
2022-10-06T08:32:37.020Z,21.10
2022-10-06T08:35:06.165Z,21.10
2022-10-06T08:37:34.470Z,21.10
2022-10-06T08:40:03.362Z,21.20
2022-10-06T08:42:39.063Z,21.20
2022-10-06T11:08:47.627Z,19.96
2022-10-06T11:11:31.592Z,19.90
2022-10-06T11:14:08.702Z,19.80
2022-10-06T11:16:47.814Z,19.70
2022-10-06T11:19:35.106Z,19.64
2022-10-06T11:22:14.859Z,19.60
2022-10-06T11:24:58.277Z,19.60
2022-10-06T11:27:44.778Z,19.60
2022-10-06T11:30:19.890Z,19.74
2022-10-06T11:33:04.373Z,19.90
2022-10-06T11:35:38.467Z,19.90
2022-10-06T11:38:20.713Z,19.80
2022-10-06T11:41:09.893Z,19.74
2022-10-06T11:43:50.835Z,19.70
2022-10-06T11:46:35.592Z,19.60
2022-10-06T11:49:42.249Z,19.60
2022-10-06T11:52:56.447Z,19.70
2022-10-06T11:55:29.714Z,19.90
2022-10-06T11:58:41.309Z,19.90
2022-10-06T12:01:08.445Z,19.90
2022-10-06T12:04:13.001Z,20.18
2022-10-06T12:07:02.102Z,20.42
2022-10-06T12:09:45.567Z,20.70
2022-10-06T12:13:13.940Z,20.90
2022-10-06T12:19:15.950Z,23.10
2022-10-06T12:22:20.106Z,23.50
2022-10-06T12:25:03.255Z,23.70
2022-10-06T12:27:44.770Z,24.00
2022-10-06T12:30:25.574Z,24.02
2022-10-06T12:32:58.694Z,23.64
2022-10-06T12:35:36.267Z,23.04
2022-10-06T12:38:35.328Z,22.56
2022-10-06T12:41:13.374Z,22.10
2022-10-06T12:43:58.502Z,21.80
2022-10-06T12:46:40.700Z,21.46
2022-10-06T12:49:37.012Z,21.18
2022-10-06T12:52:20.511Z,20.90
2022-10-06T12:55:08.330Z,20.80
2022-10-06T12:57:50.789Z,20.70
2022-10-06T13:00:31.930Z,20.60
2022-10-06T13:03:07.263Z,20.60
2022-10-06T13:05:39.381Z,20.60
2022-10-06T13:08:25.411Z,20.80
2022-10-06T13:11:14.908Z,21.00
2022-10-06T13:13:52.522Z,21.36
2022-10-06T13:16:29.254Z,23.16
2022-10-06T13:19:02.845Z,23.02
2022-10-06T13:21:36.617Z,25.06
2022-10-06T13:24:11.297Z,28.74
2022-10-06T13:26:43.584Z,31.42
2022-10-06T13:29:27.587Z,33.44
2022-10-06T13:31:59.491Z,34.10
2022-10-06T13:34:35.020Z,33.94
2022-10-06T13:37:07.164Z,34.82
2022-10-06T13:39:39.672Z,33.38
2022-10-06T13:42:17.779Z,32.32
2022-10-06T13:44:57.222Z,33.64
2022-10-06T13:47:30.793Z,34.88
2022-10-06T13:50:06.152Z,35.12
2022-10-06T13:52:41.202Z,35.00
2022-10-06T13:55:23.034Z,36.74
2022-10-06T13:58:10.815Z,37.92
2022-10-06T14:00:52.766Z,37.80
2022-10-06T14:03:28.404Z,38.46
2022-10-06T14:06:19.488Z,39.40
2022-10-06T14:08:54.778Z,40.20
2022-10-06T14:11:29.588Z,40.60
2022-10-06T14:14:04.162Z,40.70
2022-10-06T14:16:36.085Z,40.66
2022-10-06T14:19:29.991Z,39.40
2022-10-06T14:22:02.461Z,39.56
2022-10-06T14:24:37.487Z,39.00
2022-10-06T14:27:09.640Z,39.02
2022-10-06T14:29:41.414Z,36.90
2022-10-06T14:32:40.335Z,36.46
2022-10-06T14:35:13.395Z,37.22
2022-10-06T14:37:45.185Z,37.72
2022-10-06T14:40:17.190Z,38.10
2022-10-06T14:42:49.045Z,38.20
2022-10-06T14:45:20.883Z,38.00
2022-10-06T14:47:52.808Z,37.44
2022-10-06T14:50:24.693Z,36.90
2022-10-06T14:52:58.774Z,36.36
2022-10-06T14:55:31.541Z,35.68
2022-10-06T14:58:03.540Z,34.98
2022-10-06T15:00:35.382Z,34.28
2022-10-06T15:03:07.469Z,33.44
2022-10-06T15:05:59.483Z,32.66
2022-10-06T15:08:32.802Z,31.96
2022-10-06T15:11:04.613Z,31.24
2022-10-06T15:13:38.195Z,30.18
2022-10-06T15:16:10.378Z,28.90
2022-10-06T15:18:42.920Z,27.68
2022-10-06T15:21:14.795Z,26.50
2022-10-06T15:23:48.135Z,25.54
2022-10-06T15:26:37.811Z,24.66
2022-10-06T15:29:09.612Z,23.78
2022-10-06T15:31:43.251Z,23.18
2022-10-06T15:34:25.310Z,22.62
2022-10-06T15:37:00.524Z,22.20
2022-10-06T15:39:38.623Z,22.00
2022-10-06T15:42:12.804Z,21.90
2022-10-06T15:44:45.238Z,21.90
2022-10-06T15:47:28.870Z,21.90
2022-10-06T15:50:01.325Z,21.90
2022-10-06T15:52:33.975Z,21.80
2022-10-06T15:55:06.471Z,21.78
2022-10-06T15:57:38.461Z,21.70
2022-10-06T16:00:13.321Z,21.60
2022-10-06T16:02:48.353Z,21.46
2022-10-06T16:08:32.257Z,20.90
2022-10-06T16:11:04.675Z,20.58
2022-10-06T16:13:36.620Z,20.22
2022-10-06T16:16:09.078Z,19.80
2022-10-06T16:18:41.030Z,19.44
2022-10-06T16:21:13.163Z,19.14
2022-10-06T16:23:45.874Z,18.90
2022-10-06T16:26:17.840Z,18.64
2022-10-06T16:28:50.136Z,18.30
2022-10-06T16:31:22.798Z,18.00
2022-10-06T16:33:54.990Z,17.70
2022-10-06T16:36:27.254Z,17.40
2022-10-06T16:38:59.298Z,17.16
2022-10-06T16:41:31.891Z,16.90
2022-10-06T16:44:04.384Z,16.70
2022-10-06T16:46:36.489Z,16.50
2022-10-06T16:49:09.866Z,16.30
2022-10-06T16:51:45.768Z,16.18
2022-10-06T16:54:18.609Z,16.00
2022-10-06T16:56:54.193Z,15.90
2022-10-06T16:59:30.459Z,15.80
2022-10-06T17:02:06.037Z,15.60
2022-10-06T17:04:38.562Z,15.46
2022-10-06T17:07:11.944Z,15.30
2022-10-06T17:10:08.392Z,15.14
2022-10-06T17:12:46.349Z,15.00
2022-10-06T17:15:22.543Z,15.00
2022-10-06T17:18:08.075Z,15.00
2022-10-06T17:21:43.231Z,14.94
2022-10-06T17:24:18.073Z,14.90
2022-10-06T17:26:54.202Z,14.80
2022-10-06T17:29:27.286Z,14.70
2022-10-06T17:32:11.544Z,14.52
2022-10-06T17:34:50.868Z,14.40
2022-10-06T17:38:04.126Z,14.22
2022-10-06T17:41:40.277Z,14.10
2022-10-06T17:44:37.695Z,14.00
2022-10-06T17:47:12.677Z,14.00
2022-10-06T17:49:44.923Z,14.00
2022-10-06T17:52:21.826Z,13.90
2022-10-06T17:54:59.756Z,13.80
2022-10-06T17:57:32.241Z,13.70
2022-10-06T18:00:05.517Z,13.70
2022-10-06T18:02:46.513Z,13.70
2022-10-06T18:05:20.557Z,13.70
2022-10-06T18:07:53.128Z,13.60
2022-10-06T18:10:43.867Z,13.60
2022-10-06T18:13:16.112Z,13.50
2022-10-06T18:15:51.158Z,13.50
2022-10-06T18:18:30.510Z,13.40
2022-10-06T18:21:06.291Z,13.30
2022-10-06T18:23:39.048Z,13.20
2022-10-06T18:26:13.636Z,13.18
2022-10-06T18:28:55.120Z,13.10
2022-10-06T18:31:27.219Z,13.00
2022-10-06T18:35:57.581Z,12.98
2022-10-06T18:36:56.086Z,12.90
2022-10-06T18:39:31.700Z,12.80
2022-10-06T18:42:09.552Z,12.70
2022-10-06T18:45:11.707Z,12.68
2022-10-06T18:48:03.767Z,12.60
2022-10-06T18:50:39.580Z,12.60
2022-10-06T18:56:08.677Z,12.68
2022-10-06T18:58:53.075Z,12.70
2022-10-06T19:01:45.937Z,12.80
2022-10-06T19:05:03.704Z,12.80
2022-10-06T19:07:41.550Z,12.78
2022-10-06T19:10:15.682Z,12.80
2022-10-06T19:12:48.485Z,12.70
2022-10-06T19:15:21.532Z,12.70
2022-10-06T19:17:53.962Z,12.60
2022-10-06T19:20:25.855Z,12.50
2022-10-06T19:23:11.801Z,12.40
2022-10-06T19:26:01.263Z,12.30
2022-10-06T19:28:37.595Z,12.18
2022-10-06T19:31:22.195Z,12.00
2022-10-06T19:34:00.397Z,11.92
2022-10-06T19:36:36.660Z,11.86
2022-10-06T19:39:13.541Z,11.80
2022-10-06T19:42:13.634Z,11.80
2022-10-06T19:44:46.008Z,11.70
2022-10-06T19:47:20.346Z,11.70
2022-10-06T19:50:05.945Z,11.70
2022-10-06T19:52:45.224Z,11.70
2022-10-06T19:55:23.681Z,11.70
2022-10-06T19:57:55.575Z,11.64
2022-10-06T20:00:30.622Z,11.60
2022-10-06T20:03:07.564Z,11.50
2022-10-06T20:05:39.558Z,11.40
2022-10-06T20:29:47.925Z,11.70
2022-10-06T20:32:21.794Z,11.70
2022-10-06T20:35:16.466Z,11.60
2022-10-06T20:37:56.091Z,11.48
2022-10-06T20:40:42.821Z,11.40
2022-10-06T20:43:15.690Z,11.30
2022-10-06T20:45:56.173Z,11.10
2022-10-06T20:48:29.791Z,11.00
2022-10-06T20:51:02.196Z,10.90
2022-10-06T20:53:48.982Z,10.82
2022-10-06T20:56:21.346Z,10.80
2022-10-06T20:58:53.278Z,10.80
2022-10-06T21:01:25.448Z,10.80
2022-10-06T21:03:57.662Z,10.70
2022-10-06T21:06:30.110Z,10.70
2022-10-06T21:09:02.513Z,10.70
2022-10-06T21:11:37.826Z,10.70
2022-10-06T21:14:12.190Z,10.62
2022-10-06T21:16:46.302Z,10.50
2022-10-06T21:19:21.122Z,10.40
2022-10-06T21:21:57.967Z,10.30
2022-10-06T21:24:30.185Z,10.20
2022-10-06T21:27:06.265Z,10.10
2022-10-06T21:29:39.126Z,10.00
2022-10-06T21:32:11.108Z,9.90
2022-10-06T21:34:43.112Z,9.90
2022-10-06T21:37:15.038Z,9.90
2022-10-06T21:39:47.322Z,9.90
2022-10-06T21:42:22.730Z,9.90
2022-10-06T21:44:54.664Z,9.88
2022-10-06T21:47:26.677Z,9.90
2022-10-06T21:49:59.206Z,9.80
2022-10-06T21:52:31.157Z,9.70
2022-10-06T21:55:03.164Z,9.64
2022-10-06T21:57:35.050Z,9.60
2022-10-06T22:00:11.195Z,9.50
2022-10-06T22:02:45.183Z,9.40
2022-10-06T22:05:23.258Z,9.38
2022-10-06T22:07:55.243Z,9.30
2022-10-06T22:10:27.414Z,9.40
2022-10-06T22:13:00.559Z,9.50
2022-10-06T22:15:36.710Z,9.60
2022-10-06T22:18:08.994Z,9.70
2022-10-06T22:20:40.983Z,9.72
2022-10-06T22:23:14.462Z,9.80
2022-10-06T22:25:46.897Z,9.82
2022-10-06T22:28:19.804Z,9.80
2022-10-06T22:31:02.267Z,9.78
2022-10-06T22:33:34.912Z,9.70
2022-10-06T22:36:07.772Z,9.60
2022-10-06T22:38:40.248Z,9.40
2022-10-06T22:41:25.036Z,9.30
2022-10-06T22:43:59.159Z,9.20
2022-10-06T22:46:50.285Z,9.10
2022-10-06T22:49:22.495Z,9.10
2022-10-06T22:51:54.857Z,9.10
2022-10-06T22:54:30.531Z,9.10
2022-10-06T22:57:05.416Z,9.00
2022-10-06T22:59:40.455Z,8.90
2022-10-06T23:02:12.676Z,8.90
2022-10-06T23:04:44.759Z,8.90
2022-10-06T23:07:17.434Z,8.80
2022-10-06T23:09:49.281Z,8.80
2022-10-06T23:12:21.239Z,8.80
2022-10-06T23:14:53.332Z,8.62
2022-10-06T23:17:25.308Z,8.50
2022-10-06T23:19:57.246Z,8.50
2022-10-06T23:22:30.158Z,8.40
2022-10-06T23:25:02.176Z,8.40
2022-10-06T23:27:34.586Z,8.40
2022-10-06T23:30:08.438Z,8.40
2022-10-06T23:32:41.002Z,8.34
2022-10-06T23:35:14.085Z,8.30
2022-10-06T23:37:46.963Z,8.20
2022-10-06T23:40:19.709Z,8.20
2022-10-06T23:42:54.164Z,8.10
2022-10-06T23:45:26.372Z,8.10
2022-10-06T23:48:00.307Z,8.08
2022-10-06T23:50:32.679Z,8.00
2022-10-06T23:53:04.995Z,7.90
2022-10-06T23:55:37.026Z,7.90
2022-10-06T23:58:08.914Z,7.90
